Huvudsida
METAR-TAF:

METAR-TAF

Flygplatser :

Djibouti, Djibouti

latitud: 11-33N, longitud: 043-10E, höjd: 49 m

Aktuellt väderrapport

Denna rapport gjordes för 12 timmar och 55 minuter sedan, klockan 11:00 UTC
Vind 7 kt från ost
Temperatur 30°C
Fuktighet 66%
Tryck 1013 hPa
Sikt 10 km eller mer
Få moln på en höjd av 2300 ft

METAR: HDAM 191100Z 09007KT 9999 FEW023 30/23 Q1013

Tid: 02:55 (23:55 UTC)

Väderprognos

Denna rapport gjordes för 18 timmar och 55 minuter sedan, klockan 05:00 UTC
Prognos gäller från 19 kl. 06 UTC till 20 kl. 06 UTC
Vind 10 kt från ost
Sikt 10 km eller mer
Spridda moln på en höjd av 2300 ft
Spridda moln på en höjd av 3000 ft
Blir
från 19 kl. 15 UTC till 19 kl. 18 UTC
Vind 5 kt varierande vindriktning
Få moln på en höjd av 2000 ft
Blir
från 20 kl. 00 UTC till 20 kl. 06 UTC
Vind kt från nord
Spridda moln på en höjd av 2000 ft

TAF: HDAM 190500Z 1906/2006 08010KT 9999 SCT023 SCT030 BECMG 1915/1918 VRB05KT FEW020 BECMG 2000/2006 00000KT SCT020

Aktuella väderrapporter och prognoser från 4000 flygplatser (METAR- och TAF-rapporter).

De tillgängliga stationerna syns som gula och röda prickar på kartan.

För musen över prickarna för att se namnen på stationerna.

Klicka sedan för att få väderrapporter och prognoser.

För att ändra kartan: Klicka på de gröna knapparna med ett svart kors på för att zooma in; den gröna knappen med ett streck på för att zooma ut; eller på de gröna pilarna för angränsande kartor.


METAR-TAF: